Time;durP1;ratioP1;P1;durP2;ratioP2;P2;SDS_P1;SDS_P2;PMS_P1;PMS_P2;Temp;Humidity;BMP_temperature;BMP_pressure;BME280_temperature;BME280_humidity;BME280_pressure;Samples;Min_cycle;Max_cycle;Signal;HPM_P1;HPM_P2
2021/12/19 00:00:10;;;;;;;137.02;124.25;;;;;;;-1.73;100.00;101929.38;4969278;28;20055;-79
2021/12/19 00:02:49;;;;;;;132.70;120.97;;;;;;;-1.75;100.00;101926.88;4967103;28;20116;-80
2021/12/19 00:10:45;;;;;;;128.27;116.55;;;;;;;-2.33;100.00;101915.69;4963983;28;20053;-79
2021/12/19 00:13:13;;;;;;;117.25;106.38;;;;;;;-2.40;100.00;101916.13;4965750;28;20058;-79
2021/12/19 00:15:39;;;;;;;134.15;122.20;;;;;;;-2.14;100.00;101909.34;4966066;28;20126;-79
2021/12/19 00:18:06;;;;;;;129.13;118.07;;;;;;;-2.21;100.00;101919.31;4965822;28;20453;-79
2021/12/19 00:20:33;;;;;;;173.63;132.40;;;;;;;-2.26;100.00;101917.91;4965970;28;20109;-79
2021/12/19 00:23:01;;;;;;;127.68;114.45;;;;;;;-2.12;100.00;101910.94;4969350;28;20117;-79
2021/12/19 00:25:28;;;;;;;122.78;110.50;;;;;;;-2.26;100.00;101910.94;4965920;28;20567;-79
2021/12/19 00:27:55;;;;;;;131.95;119.25;;;;;;;-2.19;100.00;101904.41;4965949;28;20058;-79
2021/12/19 00:30:21;;;;;;;132.10;117.70;;;;;;;-2.34;100.00;101903.56;4965741;28;20125;-79
2021/12/19 00:32:48;;;;;;;126.10;114.18;;;;;;;-2.50;100.00;101894.22;4965676;28;20046;-80
2021/12/19 00:35:15;;;;;;;124.55;112.72;;;;;;;-2.45;100.00;101882.59;4964536;28;20058;-79
2021/12/19 00:37:42;;;;;;;123.10;111.15;;;;;;;-2.43;100.00;101887.69;4967012;28;20055;-79
2021/12/19 00:40:11;;;;;;;112.68;102.03;;;;;;;-2.39;100.00;101881.38;4968590;28;20055;-79
2021/12/19 00:42:38;;;;;;;133.90;122.35;;;;;;;-2.58;100.00;101873.84;4965285;28;20121;-79
2021/12/19 00:45:16;;;;;;;127.90;116.93;;;;;;;-2.54;100.00;101875.34;4965202;28;20457;-79
2021/12/19 00:47:43;;;;;;;110.65;101.28;;;;;;;-2.80;100.00;101867.31;4965528;28;20047;-78
2021/12/19 00:50:10;;;;;;;112.30;102.70;;;;;;;-2.66;100.00;101865.66;4964101;28;20066;-79
2021/12/19 00:52:37;;;;;;;111.43;101.40;;;;;;;-2.56;100.00;101869.41;4966970;28;20137;-79
2021/12/19 00:55:04;;;;;;;110.38;100.90;;;;;;;-2.56;100.00;101859.81;4968803;28;20131;-79
2021/12/19 00:57:32;;;;;;;109.20;99.65;;;;;;;-2.55;100.00;101863.25;4965422;28;20125;-78
2021/12/19 00:59:59;;;;;;;106.30;96.88;;;;;;;-2.62;100.00;101868.00;4968286;28;20126;-79
2021/12/19 01:02:26;;;;;;;103.95;94.90;;;;;;;-2.57;100.00;101871.16;4963117;28;20063;-78
2021/12/19 01:04:53;;;;;;;103.32;94.75;;;;;;;-2.70;100.00;101864.19;4962951;28;20114;-78
2021/12/19 01:07:20;;;;;;;107.70;98.60;;;;;;;-2.69;100.00;101868.44;4964401;28;20055;-79
2021/12/19 01:09:46;;;;;;;104.30;95.35;;;;;;;-2.75;100.00;101872.25;4970709;28;20127;-80
2021/12/19 01:12:13;;;;;;;111.75;101.85;;;;;;;-2.62;100.00;101868.00;4962788;28;20046;-78
2021/12/19 01:14:41;;;;;;;115.30;104.70;;;;;;;-2.59;100.00;101861.78;4964550;28;20128;-79
2021/12/19 01:17:08;;;;;;;129.73;118.13;;;;;;;-2.57;100.00;101862.53;4963910;28;20051;-78
2021/12/19 01:19:35;;;;;;;127.28;115.68;;;;;;;-2.77;100.00;101854.13;4965768;28;20476;-79
2021/12/19 01:22:03;;;;;;;119.75;108.15;;;;;;;-2.53;100.00;101857.03;4962782;28;20474;-79
2021/12/19 01:24:30;;;;;;;118.35;106.57;;;;;;;-2.33;100.00;101854.97;4971626;28;20046;-79
2021/12/19 01:26:57;;;;;;;109.78;98.93;;;;;;;-2.16;100.00;101861.75;4962701;28;20468;-78
2021/12/19 01:29:24;;;;;;;106.90;96.75;;;;;;;-2.07;100.00;101855.97;4963612;28;20051;-79
2021/12/19 01:31:52;;;;;;;112.97;102.20;;;;;;;-1.91;100.00;101850.63;4963930;28;20094;-79
2021/12/19 01:34:18;;;;;;;117.68;106.68;;;;;;;-2.09;100.00;101847.41;4965331;28;20456;-79
2021/12/19 01:36:45;;;;;;;135.32;123.72;;;;;;;-2.06;100.00;101836.78;4963450;28;20136;-78
2021/12/19 01:39:14;;;;;;;133.82;121.90;;;;;;;-2.08;100.00;101831.69;4971232;28;20046;-79
2021/12/19 01:41:47;;;;;;;124.60;113.55;;;;;;;-2.23;100.00;101813.59;4963542;28;20057;-80
2021/12/19 01:44:15;;;;;;;141.40;128.52;;;;;;;-2.21;100.00;101809.13;4964657;28;20100;-80
2021/12/19 01:46:44;;;;;;;175.52;157.05;;;;;;;-2.26;100.00;101806.81;4963653;28;20133;-80
2021/12/19 01:49:12;;;;;;;163.65;147.82;;;;;;;-2.39;100.00;101811.97;4965804;28;20047;-80
2021/12/19 01:51:39;;;;;;;157.63;141.40;;;;;;;-2.48;100.00;101804.72;4962320;28;20468;-80
2021/12/19 01:54:06;;;;;;;147.65;132.95;;;;;;;-2.50;100.00;101803.97;4971488;28;20125;-80
2021/12/19 01:56:33;;;;;;;131.15;117.97;;;;;;;-2.45;100.00;101794.13;4964787;28;20121;-80
2021/12/19 01:59:00;;;;;;;126.97;114.20;;;;;;;-2.44;100.00;101793.19;4963912;28;20114;-80
2021/12/19 02:01:27;;;;;;;117.03;106.00;;;;;;;-2.48;100.00;101790.84;4967691;28;20125;-80
2021/12/19 02:03:54;;;;;;;114.72;104.15;;;;;;;-2.48;100.00;101781.31;4964558;28;20051;-81
2021/12/19 02:06:22;;;;;;;110.15;100.47;;;;;;;-2.61;100.00;101770.81;4963912;28;20460;-80
2021/12/19 02:08:53;;;;;;;124.13;113.63;;;;;;;-2.48;100.00;101772.66;4964372;28;20175;-81
2021/12/19 02:11:20;;;;;;;121.22;111.60;;;;;;;-2.79;100.00;101759.75;4963255;28;20082;-79
2021/12/19 02:13:46;;;;;;;125.68;114.55;;;;;;;-2.64;100.00;101757.16;4963085;28;20051;-78
2021/12/19 02:16:13;;;;;;;121.07;110.97;;;;;;;-2.82;100.00;101749.56;4962276;28;20130;-80
2021/12/19 02:18:40;;;;;;;119.63;109.65;;;;;;;-2.87;100.00;101746.41;4962971;28;20540;-79
2021/12/19 02:21:08;;;;;;;123.43;112.90;;;;;;;-2.75;100.00;101755.25;4964583;28;20059;-79
2021/12/19 02:23:35;;;;;;;118.32;108.32;;;;;;;-2.76;100.00;101751.78;4972391;28;20046;-79
2021/12/19 02:26:02;;;;;;;116.00;106.30;;;;;;;-2.78;100.00;101745.03;4962737;28;20055;-78
2021/12/19 02:28:28;;;;;;;108.53;99.63;;;;;;;-2.97;100.00;101742.69;4962399;28;20559;-79
2021/12/19 02:30:55;;;;;;;120.22;110.10;;;;;;;-2.78;100.00;101737.22;4963321;28;20555;-79
2021/12/19 02:33:25;;;;;;;107.20;98.20;;;;;;;-2.94;100.00;101731.28;4964304;28;20055;-79
2021/12/19 02:35:59;;;;;;;104.82;95.53;;;;;;;-2.87;100.00;101733.41;4964236;28;20121;-80
2021/12/19 02:49:24;;;;;;;108.03;99.18;;;;;;;-2.98;100.00;101711.59;4966450;28;20053;-80
2021/12/19 02:51:52;;;;;;;103.50;94.70;;;;;;;-2.94;100.00;101698.31;4968685;28;20048;-80
2021/12/19 02:54:21;;;;;;;103.30;94.45;;;;;;;-2.90;100.00;101699.81;4960343;28;20058;-79
2021/12/19 02:56:48;;;;;;;116.68;106.90;;;;;;;-3.02;100.00;101698.78;4965400;28;20472;-80
2021/12/19 02:59:15;;;;;;;115.00;105.15;;;;;;;-3.13;100.00;101685.59;4966737;28;20079;-80
2021/12/19 03:01:49;;;;;;;106.93;98.13;;;;;;;-3.20;100.00;101686.09;5082127;23;20058;-79
2021/12/19 03:04:16;;;;;;;104.88;96.07;;;;;;;-3.18;100.00;101686.81;4965632;28;20058;-80
2021/12/19 03:06:47;;;;;;;113.35;103.80;;;;;;;-3.08;100.00;101682.75;4964921;28;20086;-79
2021/12/19 03:09:20;;;;;;;118.93;108.95;;;;;;;-3.03;100.00;101683.28;4964723;28;20058;-80
2021/12/19 03:12:08;;;;;;;105.70;96.50;;;;;;;-3.09;100.00;101676.69;4964782;28;20050;-78
2021/12/19 03:20:08;;;;;;;113.93;104.57;;;;;;;-3.17;100.00;101670.31;4964158;28;20054;-78
2021/12/19 03:22:35;;;;;;;108.57;99.68;;;;;;;-3.20;100.00;101675.69;4963968;28;20058;-78
2021/12/19 03:25:01;;;;;;;107.25;98.43;;;;;;;-3.15;100.00;101676.22;4968925;28;20479;-79
2021/12/19 03:27:29;;;;;;;108.25;99.03;;;;;;;-3.05;100.00;101666.97;4965722;28;20061;-79
2021/12/19 03:29:56;;;;;;;107.28;98.35;;;;;;;-3.23;100.00;101663.72;4964756;28;20121;-79
2021/12/19 03:32:25;;;;;;;110.57;101.05;;;;;;;-3.25;100.00;101649.97;4962963;28;20043;-78
2021/12/19 03:34:52;;;;;;;93.47;85.15;;;;;;;-3.29;100.00;101659.72;4963002;28;20911;-78
2021/12/19 03:37:18;;;;;;;112.43;103.55;;;;;;;-3.23;100.00;101654.16;4966569;28;20054;-79
2021/12/19 03:39:56;;;;;;;94.20;85.72;;;;;;;-3.29;100.00;101654.53;4970984;28;20105;-78
2021/12/19 03:42:25;;;;;;;105.75;97.47;;;;;;;-3.49;100.00;101649.69;4964763;28;20483;-79
2021/12/19 03:44:54;;;;;;;100.20;92.50;;;;;;;-3.50;100.00;101650.63;4963637;28;20054;-79
2021/12/19 03:47:21;;;;;;;101.72;94.13;;;;;;;-3.46;100.00;101644.31;4963448;28;20114;-78
2021/12/19 03:49:48;;;;;;;109.43;100.75;;;;;;;-3.23;100.00;101643.75;4962957;28;20054;-79
2021/12/19 03:52:14;;;;;;;103.00;94.38;;;;;;;-3.48;100.00;101640.97;4962006;28;20050;-79
2021/12/19 03:54:41;;;;;;;112.90;103.63;;;;;;;-3.30;100.00;101628.63;4971353;28;20109;-79
2021/12/19 03:57:09;;;;;;;108.25;99.63;;;;;;;-3.18;100.00;101632.22;4962581;28;20118;-80
2021/12/19 03:59:36;;;;;;;105.50;96.88;;;;;;;-3.23;100.00;101622.97;4966175;28;20117;-78
2021/12/19 04:02:05;;;;;;;109.88;101.28;;;;;;;-3.23;100.00;101622.13;4962005;28;20488;-81
2021/12/19 04:04:36;;;;;;;98.43;90.53;;;;;;;-3.31;100.00;101613.97;4964965;28;20479;-79
2021/12/19 04:07:03;;;;;;;95.95;87.78;;;;;;;-3.23;100.00;101612.56;4964340;28;20086;-78
2021/12/19 04:09:30;;;;;;;105.00;96.55;;;;;;;-3.13;100.00;101605.03;4967583;28;20046;-79
2021/12/19 04:11:57;;;;;;;110.40;101.45;;;;;;;-2.90;100.00;101598.41;4962523;28;20118;-79
2021/12/19 04:14:24;;;;;;;113.20;104.05;;;;;;;-3.10;100.00;101597.06;4962923;28;20047;-80
2021/12/19 04:16:51;;;;;;;110.10;101.18;;;;;;;-3.04;100.00;101596.66;4964069;28;20117;-80
2021/12/19 04:19:20;;;;;;;106.15;97.53;;;;;;;-2.93;100.00;101592.56;4962765;28;20396;-79
2021/12/19 04:21:47;;;;;;;104.80;96.32;;;;;;;-3.00;100.00;101592.09;4966581;28;20061;-78
2021/12/19 04:24:14;;;;;;;110.10;101.70;;;;;;;-2.65;100.00;101589.03;4956290;28;20561;-80
2021/12/19 04:26:41;;;;;;;99.40;91.70;;;;;;;-3.01;100.00;101588.69;4963274;28;20051;-79
2021/12/19 04:29:07;;;;;;;101.38;93.68;;;;;;;-2.94;100.00;101580.50;4963637;28;20089;-80
2021/12/19 04:31:34;;;;;;;96.05;88.03;;;;;;;-3.23;100.00;101575.38;4963257;28;20472;-80
2021/12/19 04:34:01;;;;;;;102.15;93.72;;;;;;;-3.05;100.00;101575.97;4961873;28;20114;-79
2021/12/19 04:36:33;;;;;;;105.22;96.90;;;;;;;-2.97;100.00;101575.47;4961762;28;20066;-80
2021/12/19 05:01:57;;;;;;;98.07;89.90;;;;;;;-3.42;100.00;101580.84;4955097;28;20155;-78
2021/12/19 05:04:52;;;;;;;117.30;108.40;;;;;;;-3.24;100.00;101573.69;4963291;28;20055;-79
2021/12/19 05:15:48;;;;;;;100.18;92.60;;;;;;;-3.30;100.00;101574.06;4959997;28;20058;-78
2021/12/19 05:18:14;;;;;;;105.90;97.45;;;;;;;-3.11;100.00;101576.38;4963181;28;20105;-79
2021/12/19 05:20:51;;;;;;;103.70;95.18;;;;;;;-2.91;100.00;101564.69;4963138;28;20476;-80
2021/12/19 05:23:24;;;;;;;117.30;108.43;;;;;;;-2.72;100.00;101567.81;4969217;28;20120;-78
2021/12/19 05:25:52;;;;;;;117.40;108.40;;;;;;;-2.23;100.00;101566.34;4961474;28;20054;-78
2021/12/19 05:28:19;;;;;;;118.43;109.28;;;;;;;-2.29;100.00;101578.00;4962016;28;20070;-80
2021/12/19 05:30:46;;;;;;;91.25;83.80;;;;;;;-3.17;100.00;101571.56;4962846;28;20059;-79
2021/12/19 05:33:13;;;;;;;96.30;88.35;;;;;;;-2.96;100.00;101577.16;4964941;28;20113;-79
2021/12/19 05:36:00;;;;;;;99.68;91.28;;;;;;;-3.00;100.00;101573.91;4962931;28;20054;-79
2021/12/19 05:46:53;;;;;;;106.25;97.82;;;;;;;-2.73;100.00;101570.47;4953660;28;20155;-79
2021/12/19 05:49:20;;;;;;;100.50;92.43;;;;;;;-2.57;100.00;101568.56;4961536;28;20058;-80
2021/12/19 05:51:47;;;;;;;95.32;87.68;;;;;;;-2.86;100.00;101565.25;4965806;28;20047;-79
2021/12/19 05:54:14;;;;;;;97.00;89.38;;;;;;;-2.86;100.00;101553.06;4958026;28;20063;-80
2021/12/19 05:56:43;;;;;;;95.45;88.25;;;;;;;-2.80;100.00;101557.03;4961301;28;20102;-80
2021/12/19 05:59:10;;;;;;;96.50;89.25;;;;;;;-2.67;100.00;101557.91;4964399;28;20051;-80
2021/12/19 06:01:46;;;;;;;95.10;87.85;;;;;;;-2.39;100.00;101556.97;4964192;28;20055;-79
2021/12/19 06:04:18;;;;;;;92.28;85.43;;;;;;;-2.66;100.00;101557.00;4962832;28;20497;-79
2021/12/19 06:06:46;;;;;;;105.47;97.47;;;;;;;-2.56;100.00;101550.25;4963021;28;20051;-79
2021/12/19 06:09:13;;;;;;;107.75;99.95;;;;;;;-2.50;100.00;101550.78;4963632;28;20043;-80
2021/12/19 06:11:39;;;;;;;123.13;114.00;;;;;;;-2.16;100.00;101542.41;4962088;28;20491;-80
2021/12/19 06:14:08;;;;;;;129.57;118.97;;;;;;;-2.08;100.00;101547.94;4961649;28;20109;-79
2021/12/19 06:16:34;;;;;;;137.00;124.97;;;;;;;-1.70;100.00;101552.28;4961816;28;20051;-80
2021/12/19 06:19:01;;;;;;;118.50;109.55;;;;;;;-1.84;100.00;101552.41;4960679;28;20110;-79
2021/12/19 06:21:28;;;;;;;117.13;108.65;;;;;;;-1.34;100.00;101542.84;4963896;28;20059;-79
2021/12/19 06:23:56;;;;;;;103.18;95.03;;;;;;;-1.73;100.00;101546.44;4974875;28;20483;-78
2021/12/19 06:26:22;;;;;;;105.50;97.63;;;;;;;-1.16;100.00;101543.31;4964935;28;20483;-79
2021/12/19 06:28:49;;;;;;;116.45;108.00;;;;;;;-0.97;100.00;101543.66;4965259;28;20055;-79
2021/12/19 06:31:18;;;;;;;117.95;109.60;;;;;;;-0.63;100.00;101533.38;4964227;28;20044;-78
2021/12/19 06:33:45;;;;;;;126.68;117.57;;;;;;;-0.30;100.00;101531.81;4964247;28;20047;-80
2021/12/19 06:36:12;;;;;;;113.22;105.07;;;;;;;-0.31;100.00;101530.13;4961661;28;20464;-79
2021/12/19 06:38:39;;;;;;;117.95;109.65;;;;;;;-0.31;100.00;101530.13;4974103;28;20054;-79
2021/12/19 06:41:05;;;;;;;124.10;114.97;;;;;;;-0.30;100.00;101516.97;4964539;28;20065;-82
2021/12/19 06:43:33;;;;;;;115.03;107.38;;;;;;;-0.19;100.00;101523.97;4963987;28;20055;-79
2021/12/19 06:46:00;;;;;;;104.13;97.13;;;;;;;-0.06;100.00;101522.13;4964969;28;20055;-79
2021/12/19 06:48:28;;;;;;;110.05;102.75;;;;;;;0.03;100.00;101515.38;4966136;28;20055;-79
2021/12/19 06:50:55;;;;;;;103.47;96.65;;;;;;;0.00;100.00;101510.38;4965764;28;20121;-79
2021/12/19 06:53:23;;;;;;;103.38;95.43;;;;;;;0.79;100.00;101507.69;4971986;28;20384;-78
2021/12/19 06:55:50;;;;;;;107.03;98.53;;;;;;;1.40;100.00;101499.25;4963571;28;20051;-80
2021/12/19 06:58:16;;;;;;;90.35;83.68;;;;;;;1.14;100.00;101495.19;4965190;28;20111;-79
2021/12/19 07:00:43;;;;;;;88.15;81.10;;;;;;;0.99;100.00;101493.81;4970890;28;20047;-79
2021/12/19 07:03:16;;;;;;;91.88;84.65;;;;;;;1.83;100.00;101486.00;4962660;28;20137;-79
2021/12/19 07:05:45;;;;;;;85.50;79.50;;;;;;;1.66;100.00;101479.56;4965582;28;20050;-80
2021/12/19 07:08:18;;;;;;;78.53;73.13;;;;;;;1.88;100.00;101475.13;4965727;28;20114;-80
2021/12/19 07:10:45;;;;;;;78.65;73.38;;;;;;;1.83;100.00;101467.66;4963459;28;20475;-80
2021/12/19 07:13:12;;;;;;;77.07;71.70;;;;;;;1.90;100.00;101458.31;4960950;28;20516;-80
2021/12/19 07:15:39;;;;;;;80.45;74.57;;;;;;;2.56;100.00;101459.63;4965252;28;20047;-80
2021/12/19 07:18:06;;;;;;;69.10;64.50;;;;;;;2.45;100.00;101452.69;4965241;28;20110;-79
2021/12/19 07:20:33;;;;;;;67.63;63.40;;;;;;;2.34;100.00;101451.03;4965365;28;20051;-80
2021/12/19 07:23:01;;;;;;;66.72;62.22;;;;;;;2.02;100.00;101446.78;4968781;28;20117;-80
2021/12/19 07:25:28;;;;;;;66.15;62.03;;;;;;;1.32;100.00;101442.28;4965656;28;20480;-79
2021/12/19 07:27:55;;;;;;;72.75;67.45;;;;;;;2.87;100.00;101440.16;4965267;28;20134;-78
2021/12/19 07:30:25;;;;;;;63.00;58.83;;;;;;;1.59;100.00;101436.53;4964844;28;20059;-79
2021/12/19 07:32:53;;;;;;;63.65;59.58;;;;;;;2.26;100.00;101435.13;4964153;28;20132;-80
2021/12/19 07:35:20;;;;;;;62.50;58.63;;;;;;;2.26;100.00;101429.88;4964824;28;20066;-80
2021/12/19 07:37:49;;;;;;;66.32;62.10;;;;;;;2.62;100.00;101438.91;4955862;28;20055;-79
2021/12/19 07:40:20;;;;;;;63.13;59.22;;;;;;;2.05;100.00;101429.94;4960504;28;20054;-80
2021/12/19 07:42:47;;;;;;;65.82;61.75;;;;;;;2.74;100.00;101424.72;4965185;28;20183;-79
2021/12/19 07:45:16;;;;;;;70.00;65.63;;;;;;;2.64;100.00;101417.81;4964956;28;20117;-79
2021/12/19 07:47:43;;;;;;;60.47;56.78;;;;;;;3.21;100.00;101416.97;4964738;28;20117;-79
2021/12/19 07:50:12;;;;;;;58.08;54.58;;;;;;;2.58;100.00;101419.19;4963960;28;20047;-79
2021/12/19 07:52:39;;;;;;;66.18;62.20;;;;;;;3.92;100.00;101406.94;4966017;28;20051;-79
2021/12/19 07:55:07;;;;;;;66.72;62.80;;;;;;;3.35;100.00;101412.22;4967893;28;20485;-80
2021/12/19 07:57:36;;;;;;;62.25;58.47;;;;;;;4.21;100.00;101418.13;4964620;28;20443;-83
2021/12/19 08:00:04;;;;;;;59.78;56.17;;;;;;;2.97;100.00;101411.31;4968200;28;20109;-80
2021/12/19 08:02:31;;;;;;;63.75;59.75;;;;;;;2.92;100.00;101411.72;4962015;28;20136;-79
2021/12/19 08:04:58;;;;;;;63.75;59.35;;;;;;;3.27;100.00;101423.44;4962852;28;20118;-79
2021/12/19 08:07:24;;;;;;;61.17;57.53;;;;;;;4.51;100.00;101406.44;4963128;28;20118;-79
2021/12/19 08:09:59;;;;;;;59.80;56.13;;;;;;;2.73;100.00;101411.75;4969141;28;20055;-81
2021/12/19 08:12:25;;;;;;;59.58;56.05;;;;;;;3.36;100.00;101406.00;4965167;28;20046;-79
2021/12/19 08:14:53;;;;;;;64.97;60.88;;;;;;;4.08;100.00;101401.84;4966629;28;20061;-79
2021/12/19 08:17:21;;;;;;;64.22;60.10;;;;;;;2.49;100.00;101396.41;4962171;28;20456;-80
2021/12/19 08:19:48;;;;;;;61.80;57.85;;;;;;;2.91;100.00;101396.97;4962273;28;20491;-83
2021/12/19 08:22:15;;;;;;;62.22;58.70;;;;;;;3.21;100.00;101389.88;4963320;28;20055;-80
2021/12/19 08:24:42;;;;;;;62.30;58.70;;;;;;;2.72;100.00;101384.69;4959681;28;20081;-80
2021/12/19 08:27:09;;;;;;;62.67;58.80;;;;;;;3.88;100.00;101380.13;4962664;28;20048;-79
2021/12/19 08:29:35;;;;;;;62.03;58.40;;;;;;;2.97;100.00;101383.28;4962045;28;20117;-79
2021/12/19 08:32:04;;;;;;;63.80;59.80;;;;;;;3.21;100.00;101379.38;4963097;28;20055;-80
2021/12/19 08:34:31;;;;;;;63.35;59.65;;;;;;;4.32;100.00;101373.19;4963625;28;20117;-80
2021/12/19 08:36:58;;;;;;;63.67;59.75;;;;;;;3.54;100.00;101362.28;4963469;28;20121;-80
2021/12/19 08:39:25;;;;;;;63.95;60.25;;;;;;;3.20;100.00;101364.59;4970723;28;20051;-80
2021/12/19 08:41:52;;;;;;;62.33;58.53;;;;;;;4.23;100.00;101365.38;4961967;28;20140;-79
2021/12/19 08:44:18;;;;;;;59.95;56.33;;;;;;;4.07;100.00;101366.03;4962676;28;20166;-80
2021/12/19 08:46:45;;;;;;;60.25;56.70;;;;;;;4.18;100.00;101370.28;4962685;28;20054;-79
2021/12/19 08:49:14;;;;;;;59.63;55.92;;;;;;;4.79;100.00;101364.25;4964812;28;20051;-79
2021/12/19 08:51:41;;;;;;;59.63;55.90;;;;;;;4.00;100.00;101360.53;4961357;28;20058;-80
2021/12/19 08:54:08;;;;;;;59.88;56.10;;;;;;;5.14;100.00;101376.50;4970593;28;20043;-79
2021/12/19 08:56:35;;;;;;;61.40;57.55;;;;;;;5.76;100.00;101370.28;4963592;28;20120;-80
2021/12/19 08:59:03;;;;;;;61.92;58.05;;;;;;;5.53;100.00;101364.75;4963166;28;20054;-79
2021/12/19 09:01:31;;;;;;;63.97;60.05;;;;;;;5.69;100.00;101357.75;4967035;28;20539;-80
2021/12/19 09:03:58;;;;;;;60.40;56.67;;;;;;;4.86;100.00;101348.69;4967126;28;20058;-80
2021/12/19 09:06:26;;;;;;;61.15;57.45;;;;;;;4.54;100.00;101353.53;4961737;28;20051;-81
2021/12/19 09:08:53;;;;;;;82.85;77.28;;;;;;;5.24;100.00;101342.22;4972512;28;20105;-79
2021/12/19 09:11:20;;;;;;;87.35;81.13;;;;;;;6.99;100.00;101332.59;4962276;28;20054;-79
2021/12/19 09:13:47;;;;;;;85.63;79.57;;;;;;;6.38;100.00;101323.34;4962297;28;20071;-81
2021/12/19 09:16:14;;;;;;;86.25;80.03;;;;;;;4.79;100.00;101322.97;4961303;28;20055;-78
2021/12/19 09:18:41;;;;;;;86.88;80.97;;;;;;;5.84;100.00;101317.59;4961723;28;20114;-80
2021/12/19 09:21:08;;;;;;;84.80;79.07;;;;;;;5.15;100.00;101314.16;4963329;28;20083;-80
2021/12/19 09:23:36;;;;;;;84.25;78.38;;;;;;;4.81;100.00;101317.53;4971025;28;20105;-79
2021/12/19 09:26:05;;;;;;;80.85;75.75;;;;;;;5.57;100.00;101308.94;4961658;28;20114;-79
2021/12/19 09:28:32;;;;;;;78.85;73.85;;;;;;;6.21;100.00;101301.41;4961663;28;20058;-80
2021/12/19 09:30:59;;;;;;;80.85;75.47;;;;;;;5.74;100.00;101294.00;4961894;28;20055;-78
2021/12/19 09:33:26;;;;;;;82.40;77.00;;;;;;;5.22;100.00;101294.13;4963004;28;20047;-80
2021/12/19 09:35:52;;;;;;;88.05;82.03;;;;;;;4.93;100.00;101290.00;4963713;28;20055;-79
2021/12/19 09:38:20;;;;;;;87.43;81.22;;;;;;;5.97;100.00;101283.72;4968736;28;20054;-80
2021/12/19 09:40:48;;;;;;;84.13;78.30;;;;;;;6.11;100.00;101277.81;4961141;28;20052;-79
2021/12/19 09:43:41;;;;;;;87.53;81.15;;;;;;;5.60;100.00;101260.34;4962780;28;20047;-79
2021/12/19 09:46:10;;;;;;;89.32;82.97;;;;;;;5.11;100.00;101254.88;4958704;28;20047;-80
2021/12/19 09:48:39;;;;;;;87.50;81.40;;;;;;;5.10;100.00;101251.41;4962252;28;20055;-81
2021/12/19 09:51:06;;;;;;;89.53;83.32;;;;;;;5.93;100.00;101243.69;4963425;28;20059;-80
2021/12/19 09:53:33;;;;;;;82.97;76.90;;;;;;;5.20;100.00;101240.75;4970628;28;20054;-80
2021/12/19 09:56:01;;;;;;;87.88;81.70;;;;;;;5.59;100.00;101235.81;4963672;28;20088;-80
2021/12/19 09:58:30;;;;;;;86.22;80.10;;;;;;;5.79;100.00;101233.72;4965472;28;20129;-79
2021/12/19 10:00:57;;;;;;;87.57;81.13;;;;;;;5.20;100.00;101231.03;4973499;28;20051;-80
2021/12/19 10:03:24;;;;;;;88.30;81.80;;;;;;;6.48;100.00;101218.47;4963167;28;20480;-80
2021/12/19 10:05:50;;;;;;;86.32;80.13;;;;;;;4.91;100.00;101215.63;4965606;28;20050;-79
2021/12/19 10:08:24;;;;;;;90.43;83.93;;;;;;;5.91;100.00;101216.59;4967934;28;20055;-79
2021/12/19 10:10:56;;;;;;;91.18;84.38;;;;;;;5.61;100.00;101204.03;4964999;28;20043;-79
2021/12/19 10:13:33;;;;;;;89.95;82.80;;;;;;;6.59;100.00;101193.53;4965214;28;20084;-79
2021/12/19 10:16:00;;;;;;;88.75;82.05;;;;;;;5.32;100.00;101191.25;4962463;28;20059;-78
2021/12/19 10:18:27;;;;;;;92.50;85.40;;;;;;;6.18;100.00;101188.31;4966881;28;20047;-79
2021/12/19 10:20:57;;;;;;;91.78;84.55;;;;;;;5.91;100.00;101194.69;4966556;28;20059;-80
2021/12/19 10:23:25;;;;;;;91.18;83.97;;;;;;;5.64;100.00;101187.91;4973358;28;20050;-81
2021/12/19 10:25:57;;;;;;;89.47;82.57;;;;;;;5.26;100.00;101184.81;4964842;28;20058;-79
2021/12/19 10:28:24;;;;;;;68.47;63.97;;;;;;;5.09;100.00;101183.94;4964898;28;20121;-79
2021/12/19 10:30:52;;;;;;;67.80;62.97;;;;;;;6.26;100.00;101175.09;4966318;28;20480;-79
2021/12/19 10:33:22;;;;;;;64.45;59.97;;;;;;;5.20;100.00;101180.19;4966384;28;20129;-80
2021/12/19 10:35:53;;;;;;;67.90;63.35;;;;;;;4.94;100.00;101185.53;4966466;28;20416;-79
2021/12/19 10:38:23;;;;;;;69.57;65.20;;;;;;;6.47;100.00;101190.41;4972417;28;20121;-80
2021/12/19 10:40:53;;;;;;;71.80;66.95;;;;;;;5.84;100.00;101177.84;4964227;28;20106;-80
2021/12/19 10:43:20;;;;;;;63.13;59.08;;;;;;;6.05;100.00;101175.63;4965288;28;20055;-79
2021/12/19 10:45:51;;;;;;;68.97;64.32;;;;;;;5.57;100.00;101157.88;4966275;28;20058;-81
2021/12/19 10:48:23;;;;;;;67.50;62.85;;;;;;;7.21;100.00;101137.38;4965832;28;20061;-80
2021/12/19 10:50:53;;;;;;;67.63;63.25;;;;;;;6.57;100.00;101124.25;4966019;28;20055;-81
2021/12/19 10:53:25;;;;;;;65.57;61.17;;;;;;;6.82;100.00;101128.44;4972175;28;20055;-79
2021/12/19 10:55:52;;;;;;;68.22;63.92;;;;;;;7.62;100.00;101139.75;4963901;28;20109;-80
2021/12/19 10:58:25;;;;;;;69.72;65.18;;;;;;;7.32;100.00;101123.75;4964991;28;20130;-81
2021/12/19 11:00:57;;;;;;;66.53;61.85;;;;;;;8.04;100.00;101103.03;4959208;28;20054;-79
2021/12/19 11:03:44;;;;;;;66.72;62.20;;;;;;;7.17;100.00;101094.63;4961995;28;20059;-81
2021/12/19 11:06:31;;;;;;;72.00;67.05;;;;;;;8.10;100.00;101080.31;4962880;28;20059;-79
2021/12/19 11:09:00;;;;;;;70.95;66.35;;;;;;;6.53;100.00;101070.97;4966539;28;20109;-79
2021/12/19 11:11:41;;;;;;;69.38;64.70;;;;;;;7.03;100.00;101067.13;4964892;28;20105;-79
2021/12/19 11:14:09;;;;;;;71.50;67.00;;;;;;;6.90;100.00;101064.22;4965468;28;20078;-80
2021/12/19 11:16:36;;;;;;;65.22;60.60;;;;;;;7.77;100.00;101067.41;4964812;28;20476;-80
2021/12/19 11:19:04;;;;;;;61.60;57.35;;;;;;;7.20;100.00;101044.06;4964037;28;20500;-80
2021/12/19 11:21:34;;;;;;;61.88;57.78;;;;;;;6.92;100.00;101049.00;4963418;28;20555;-80
2021/12/19 11:24:02;;;;;;;69.13;64.40;;;;;;;6.68;100.00;101033.31;4973551;28;20558;-80
2021/12/19 11:26:30;;;;;;;69.57;64.75;;;;;;;6.81;100.00;101025.66;4965186;28;20113;-80
2021/12/19 11:28:57;;;;;;;68.03;63.75;;;;;;;6.66;100.00;101012.38;4964874;28;20482;-80
2021/12/19 11:31:30;;;;;;;69.75;65.22;;;;;;;6.40;100.00;101004.72;4964279;28;20047;-81
2021/12/19 11:34:23;;;;;;;71.88;67.50;;;;;;;6.70;100.00;101016.31;4964517;28;20066;-80
2021/12/19 11:36:56;;;;;;;69.43;64.68;;;;;;;6.78;100.00;100999.63;4967787;28;20138;-81
2021/12/19 11:39:28;;;;;;;71.88;67.05;;;;;;;6.41;100.00;100993.19;4958364;28;20134;-80
2021/12/19 11:42:19;;;;;;;72.80;68.07;;;;;;;8.55;100.00;100979.78;4963472;28;20057;-82
2021/12/19 11:45:01;;;;;;;74.72;70.20;;;;;;;7.51;100.00;100974.47;4950918;28;20051;-79
2021/12/19 11:47:43;;;;;;;66.82;62.40;;;;;;;7.02;100.00;100967.75;4963159;28;20134;-79
2021/12/19 11:50:22;;;;;;;71.95;67.38;;;;;;;6.91;100.00;100962.88;4963744;28;20055;-79
2021/12/19 11:52:52;;;;;;;64.65;60.00;;;;;;;5.45;100.00;100962.44;4966572;28;20054;-79
2021/12/19 11:55:41;;;;;;;58.80;54.70;;;;;;;6.35;100.00;100980.66;4969704;28;20050;-80
2021/12/19 11:58:32;;;;;;;63.08;58.90;;;;;;;7.50;100.00;100960.44;4956640;28;20088;-80
2021/12/19 12:01:06;;;;;;;70.75;66.28;;;;;;;7.48;100.00;100966.91;4959606;28;20062;-79
2021/12/19 12:03:44;;;;;;;69.25;64.68;;;;;;;7.63;100.00;100946.59;4961507;28;20067;-79
2021/12/19 12:06:43;;;;;;;64.75;60.40;;;;;;;6.46;100.00;100951.28;4962930;28;20051;-80
2021/12/19 12:09:23;;;;;;;65.20;61.17;;;;;;;8.47;100.00;100941.81;4965365;28;20117;-79